Time;durP1;ratioP1;P1;durP2;ratioP2;P2;SDS_P1;SDS_P2;PMS_P1;PMS_P2;Temp;Humidity;BMP_temperature;BMP_pressure;BME280_temperature;BME280_humidity;BME280_pressure;Samples;Min_cycle;Max_cycle;Signal;HPM_P1;HPM_P2
2023/10/11 00:00:44;;;;;;;7.05;5.18;;;13.10;99.90;;;;;;4927929;29;20027;-52
2023/10/11 00:05:50;;;;;;;5.63;4.60;;;13.10;99.90;;;;;;4932883;28;20460;-52
2023/10/11 00:08:17;;;;;;;8.10;5.47;;;13.10;99.90;;;;;;4931729;29;20027;-53
2023/10/11 00:10:53;;;;;;;5.13;4.63;;;13.10;99.90;;;;;;4924548;29;20020;-54
2023/10/11 00:13:20;;;;;;;;;;;13.10;99.90;;;;;;4929401;28;20086;-55
2023/10/11 00:15:50;;;;;;;;;;;13.10;99.90;;;;;;4932224;29;19910;-56
2023/10/11 00:18:24;;;;;;;7.45;5.15;;;13.10;99.90;;;;;;4927554;29;19990;-55
2023/10/11 00:20:51;;;;;;;5.82;4.68;;;13.10;99.90;;;;;;4923541;29;20067;-55
2023/10/11 00:23:21;;;;;;;7.55;5.65;;;13.10;99.90;;;;;;4923038;29;20509;-56
2023/10/11 00:25:50;;;;;;;8.35;5.72;;;13.10;99.90;;;;;;4928995;29;20039;-55
2023/10/11 00:28:16;;;;;;;8.82;6.75;;;13.10;99.90;;;;;;4929492;28;20039;-56
2023/10/11 00:30:46;;;;;;;8.70;6.57;;;13.10;99.90;;;;;;4931390;29;20016;-53
2023/10/11 00:33:12;;;;;;;9.02;6.70;;;13.00;99.90;;;;;;4927939;29;20032;-56
2023/10/11 00:35:47;;;;;;;7.03;5.43;;;13.00;99.90;;;;;;4930220;28;20095;-55
2023/10/11 00:38:20;;;;;;;10.10;6.00;;;13.00;99.90;;;;;;4920592;29;20082;-55
2023/10/11 00:43:50;;;;;;;9.82;6.68;;;12.90;99.90;;;;;;4922486;28;20055;-52
2023/10/11 00:46:19;;;;;;;8.07;5.78;;;13.00;99.90;;;;;;4931122;28;20031;-53
2023/10/11 00:48:54;;;;;;;11.32;6.63;;;12.90;99.90;;;;;;4927429;29;20086;-55
2023/10/11 00:51:31;;;;;;;7.85;5.68;;;12.90;99.90;;;;;;4925400;28;20356;-56
2023/10/11 00:53:58;;;;;;;7.75;5.80;;;12.90;99.90;;;;;;4930826;29;20023;-54
2023/10/11 00:56:31;;;;;;;11.07;7.20;;;12.90;99.90;;;;;;4928357;29;20046;-56
2023/10/11 00:58:58;;;;;;;12.18;6.90;;;12.90;99.90;;;;;;4929400;28;20031;-55
2023/10/11 01:01:24;;;;;;;9.18;6.90;;;13.00;99.90;;;;;;4923292;28;20071;-53
2023/10/11 01:03:51;;;;;;;13.95;7.25;;;13.00;99.90;;;;;;4922621;29;20025;-53
2023/10/11 01:06:17;;;;;;;10.85;7.60;;;13.00;99.90;;;;;;4922569;29;20059;-55
2023/10/11 01:08:42;;;;;;;10.55;7.00;;;13.00;99.90;;;;;;4920727;29;20020;-55
2023/10/11 01:11:11;;;;;;;11.35;7.50;;;13.00;99.90;;;;;;4922756;29;20032;-56
2023/10/11 01:13:52;;;;;;;11.90;8.35;;;13.00;99.90;;;;;;4922905;29;20062;-56
2023/10/11 01:16:24;;;;;;;13.18;8.27;;;13.10;99.90;;;;;;4929149;29;20033;-55
2023/10/11 01:18:50;;;;;;;14.50;9.10;;;13.00;99.90;;;;;;4925010;29;20442;-54
2023/10/11 01:21:16;;;;;;;11.02;7.53;;;13.10;99.90;;;;;;4926631;29;20024;-53
2023/10/11 01:23:41;;;;;;;13.32;8.82;;;13.10;99.90;;;;;;4930343;28;20051;-56
2023/10/11 01:26:08;;;;;;;15.20;9.68;;;13.00;99.90;;;;;;4928444;29;20039;-55
2023/10/11 01:28:34;;;;;;;12.95;9.70;;;13.10;99.90;;;;;;4928504;28;20106;-56
2023/10/11 01:31:01;;;;;;;15.77;10.07;;;13.10;99.90;;;;;;4930345;29;20071;-52
2023/10/11 01:33:27;;;;;;;10.40;8.27;;;13.20;99.90;;;;;;4923101;28;20021;-55
2023/10/11 01:35:53;;;;;;;14.18;9.32;;;13.20;99.90;;;;;;4926827;29;20435;-56
2023/10/11 01:38:18;;;;;;;24.35;10.95;;;13.20;99.90;;;;;;4928751;29;20082;-52
2023/10/11 01:40:44;;;;;;;13.77;9.32;;;13.20;99.90;;;;;;4922797;29;20028;-55
2023/10/11 01:43:10;;;;;;;12.15;8.15;;;13.20;99.90;;;;;;4930358;29;20070;-56
2023/10/11 01:45:39;;;;;;;16.10;10.18;;;13.30;99.90;;;;;;4928249;28;20031;-55
2023/10/11 01:48:05;;;;;;;14.38;8.88;;;13.20;99.90;;;;;;4927665;28;20036;-55
2023/10/11 01:50:31;;;;;;;12.43;7.68;;;13.20;99.90;;;;;;4930547;28;20034;-53
2023/10/11 01:52:56;;;;;;;14.98;8.13;;;13.20;99.90;;;;;;4922399;29;20107;-54
2023/10/11 01:55:22;;;;;;;13.85;8.15;;;13.20;99.90;;;;;;4924150;29;20036;-53
2023/10/11 01:57:51;;;;;;;12.10;9.10;;;13.20;99.90;;;;;;4930073;29;20027;-55
2023/10/11 02:00:20;;;;;;;20.88;10.18;;;13.20;99.90;;;;;;4928792;29;20077;-55
2023/10/11 02:02:55;;;;;;;13.38;9.07;;;13.20;99.90;;;;;;4926769;28;20616;-56
2023/10/11 02:05:25;;;;;;;12.35;8.10;;;13.20;99.90;;;;;;4930866;29;20503;-56
2023/10/11 02:07:51;;;;;;;19.50;10.05;;;13.30;99.90;;;;;;4926206;29;20483;-53
2023/10/11 02:10:27;;;;;;;12.45;8.23;;;13.30;99.90;;;;;;4926191;28;20054;-55
2023/10/11 02:12:56;;;;;;;14.85;9.27;;;13.30;99.90;;;;;;4923418;29;20113;-54
2023/10/11 02:15:27;;;;;;;18.10;9.73;;;13.30;99.90;;;;;;4921990;28;23298;-56
2023/10/11 02:17:53;;;;;;;14.95;8.98;;;13.40;99.90;;;;;;4928277;29;20027;-56
2023/10/11 02:20:22;;;;;;;10.00;7.18;;;13.40;99.90;;;;;;4922210;28;20046;-55
2023/10/11 02:22:52;;;;;;;11.10;7.57;;;13.40;99.90;;;;;;4929632;29;20071;-53
2023/10/11 02:25:24;;;;;;;12.60;7.80;;;13.30;99.90;;;;;;4928131;29;20047;-56
2023/10/11 02:27:50;;;;;;;16.20;8.77;;;13.40;99.90;;;;;;4926623;28;20024;-53
2023/10/11 02:30:22;;;;;;;13.82;7.93;;;13.30;99.90;;;;;;4929915;28;20102;-55
2023/10/11 02:32:49;;;;;;;14.40;7.47;;;13.30;99.90;;;;;;4929719;29;20059;-56
2023/10/11 02:35:15;;;;;;;11.80;7.97;;;13.30;99.90;;;;;;4926007;29;20035;-55
2023/10/11 02:37:45;;;;;;;10.18;6.78;;;13.30;99.90;;;;;;4928270;28;20024;-56
2023/10/11 02:40:16;;;;;;;9.73;7.03;;;13.30;99.90;;;;;;4932858;29;20110;-55
2023/10/11 02:42:49;;;;;;;12.32;7.63;;;13.20;99.90;;;;;;4931125;29;20102;-56
2023/10/11 02:45:19;;;;;;;13.18;7.35;;;13.20;99.90;;;;;;4929545;28;20036;-54
2023/10/11 02:47:48;;;;;;;10.80;6.82;;;13.20;99.90;;;;;;4933866;28;20114;-53
2023/10/11 02:50:14;;;;;;;13.45;7.43;;;13.20;99.90;;;;;;4933395;29;20023;-52
2023/10/11 02:52:41;;;;;;;10.38;6.95;;;13.10;99.90;;;;;;4929643;29;20103;-53
2023/10/11 02:57:45;;;;;;;12.95;6.95;;;13.10;99.90;;;;;;4929494;28;20632;-54
2023/10/11 03:00:23;;;;;;;11.85;7.65;;;13.00;99.90;;;;;;4929330;29;20035;-53
2023/10/11 03:02:55;;;;;;;13.20;7.50;;;13.00;99.90;;;;;;4925722;28;20190;-55
2023/10/11 03:05:27;;;;;;;10.90;6.72;;;13.00;99.90;;;;;;4925075;29;20035;-53
2023/10/11 03:08:17;;;;;;;10.98;7.10;;;13.00;99.90;;;;;;4925083;29;20098;-52
2023/10/11 03:10:45;;;;;;;11.93;6.80;;;12.90;99.90;;;;;;4932316;28;20391;-56
2023/10/11 03:13:19;;;;;;;12.27;6.75;;;12.90;99.90;;;;;;4934678;29;20020;-54
2023/10/11 03:15:54;;;;;;;12.45;7.22;;;12.90;99.90;;;;;;4926370;29;20064;-55
2023/10/11 03:18:25;;;;;;;13.52;7.40;;;12.80;99.90;;;;;;4930862;28;20019;-53
2023/10/11 03:21:06;;;;;;;16.38;8.57;;;12.90;99.90;;;;;;4928712;28;20068;-55
2023/10/11 03:23:35;;;;;;;14.18;8.23;;;12.90;99.90;;;;;;4931083;29;20051;-54
2023/10/11 03:26:07;;;;;;;14.63;8.27;;;12.90;99.90;;;;;;4929132;28;20035;-55
2023/10/11 03:28:33;;;;;;;15.70;7.57;;;12.90;99.90;;;;;;4930215;29;20039;-46
2023/10/11 03:30:58;;;;;;;13.77;8.05;;;12.90;99.90;;;;;;4930330;29;20024;-67
2023/10/11 03:33:24;;;;;;;11.30;7.18;;;13.00;99.90;;;;;;4932407;29;20035;-56
2023/10/11 03:35:50;;;;;;;12.95;8.05;;;12.90;99.90;;;;;;4924723;29;20381;-58
2023/10/11 03:38:17;;;;;;;14.25;6.93;;;12.90;99.90;;;;;;4925584;28;20392;-54
2023/10/11 03:40:55;;;;;;;11.30;6.65;;;13.00;99.90;;;;;;4933803;29;20668;-56
2023/10/11 03:43:21;;;;;;;11.63;7.00;;;13.00;99.90;;;;;;4927213;28;20062;-56
2023/10/11 03:45:49;;;;;;;9.70;6.65;;;12.90;99.90;;;;;;4928480;28;20738;-56
2023/10/11 03:48:17;;;;;;;13.27;6.32;;;12.90;99.90;;;;;;4932009;28;20024;-57
2023/10/11 03:50:51;;;;;;;13.75;6.70;;;12.90;99.90;;;;;;4928208;29;20027;-55
2023/10/11 03:53:17;;;;;;;10.75;7.43;;;12.90;99.90;;;;;;4922228;29;20043;-54
2023/10/11 03:55:46;;;;;;;12.65;7.63;;;12.90;99.90;;;;;;4924136;29;20484;-55
2023/10/11 04:01:14;;;;;;;12.88;7.40;;;13.00;99.90;;;;;;4921781;29;20126;-55
2023/10/11 04:03:41;;;;;;;14.65;7.13;;;12.90;99.90;;;;;;4928087;29;20039;-55
2023/10/11 04:06:13;;;;;;;10.63;6.78;;;13.00;99.90;;;;;;4931947;29;20748;-55
2023/10/11 04:08:43;;;;;;;11.13;6.60;;;13.00;99.90;;;;;;4926108;29;20389;-54
2023/10/11 04:13:58;;;;;;;15.48;6.68;;;13.00;99.90;;;;;;4917609;29;20075;-56
2023/10/11 04:16:24;;;;;;;10.65;5.95;;;13.00;99.90;;;;;;4931758;29;20125;-55
2023/10/11 04:18:52;;;;;;;12.48;6.25;;;13.00;99.90;;;;;;4925773;29;20031;-56
2023/10/11 04:23:55;;;;;;;11.68;6.72;;;13.00;99.90;;;;;;4923302;29;20192;-54
2023/10/11 04:26:35;;;;;;;10.48;6.25;;;13.00;99.90;;;;;;4927533;29;20062;-56
2023/10/11 04:29:06;;;;;;;12.38;6.53;;;13.00;99.90;;;;;;4928721;28;20082;-53
2023/10/11 04:31:39;;;;;;;10.27;5.90;;;13.00;99.90;;;;;;4923540;29;20023;-54
2023/10/11 04:34:11;;;;;;;10.63;6.13;;;13.00;99.90;;;;;;4923236;29;20508;-57
2023/10/11 04:36:42;;;;;;;10.05;5.78;;;12.90;99.90;;;;;;4928406;29;20398;-68
2023/10/11 04:39:18;;;;;;;11.63;6.22;;;12.90;99.90;;;;;;4931844;29;20177;-68
2023/10/11 04:41:51;;;;;;;11.50;6.57;;;12.90;99.90;;;;;;4928901;28;20032;-68
2023/10/11 04:44:17;;;;;;;17.90;6.95;;;12.90;99.90;;;;;;4928482;28;20023;-68
2023/10/11 04:46:44;;;;;;;13.68;6.25;;;12.90;99.90;;;;;;4931365;29;20086;-60
2023/10/11 04:49:23;;;;;;;12.77;5.88;;;12.90;99.90;;;;;;4928159;29;20024;-59
2023/10/11 04:51:48;;;;;;;13.00;5.88;;;12.90;99.90;;;;;;4924685;28;20571;-60
2023/10/11 04:54:15;;;;;;;14.88;6.45;;;12.90;99.90;;;;;;4930775;28;20114;-60
2023/10/11 04:59:11;;;;;;;15.05;6.68;;;12.90;99.90;;;;;;4930854;29;20041;-59
2023/10/11 05:04:26;;;;;;;11.07;5.53;;;12.90;99.90;;;;;;4925227;28;20093;-60
2023/10/11 05:06:53;;;;;;;13.80;6.30;;;12.90;99.90;;;;;;4930672;28;20400;-60
2023/10/11 05:09:29;;;;;;;11.95;7.28;;;12.90;99.90;;;;;;4928359;29;20070;-60
2023/10/11 05:14:53;;;;;;;13.15;6.57;;;12.90;99.90;;;;;;4929393;29;20090;-60
2023/10/11 05:20:08;;;;;;;10.45;5.82;;;13.00;99.90;;;;;;4928975;28;20054;-60
2023/10/11 05:30:11;;;;;;;9.40;5.38;;;13.00;99.90;;;;;;4920361;29;20103;-59
2023/10/11 05:32:58;;;;;;;9.77;5.13;;;13.00;99.90;;;;;;4918760;29;20098;-60
2023/10/11 05:51:43;;;;;;;7.88;4.63;;;13.20;99.90;;;;;;4924591;28;20503;-60
2023/10/11 05:54:09;;;;;;;;;;;13.20;99.90;;;;;;4921140;29;20020;-60
2023/10/11 05:56:38;;;;;;;9.38;5.05;;;13.20;99.90;;;;;;4920853;29;19919;-60
2023/10/11 05:59:11;;;;;;;10.18;4.97;;;13.20;99.90;;;;;;4928352;28;20029;-60
2023/10/11 06:01:37;;;;;;;7.18;4.38;;;13.20;99.90;;;;;;4926546;29;20035;-60
2023/10/11 06:04:04;;;;;;;12.13;5.30;;;13.30;99.90;;;;;;4927216;28;20099;-60
2023/10/11 06:06:41;;;;;;;8.55;4.88;;;13.30;99.90;;;;;;4931285;28;20023;-58
2023/10/11 06:09:16;;;;;;;8.98;4.93;;;13.40;99.90;;;;;;4926140;28;20046;-60
2023/10/11 06:11:49;;;;;;;8.10;4.95;;;13.40;99.90;;;;;;4927641;28;20090;-60
2023/10/11 06:14:17;;;;;;;11.57;5.47;;;13.50;99.90;;;;;;4925281;28;20115;-60
2023/10/11 06:16:49;;;;;;;8.70;5.35;;;13.50;99.90;;;;;;4928494;28;20031;-59
2023/10/11 06:19:25;;;;;;;9.80;5.10;;;13.70;99.90;;;;;;4926747;28;20623;-60
2023/10/11 06:21:59;;;;;;;10.70;5.25;;;13.80;99.90;;;;;;4926127;28;20558;-60
2023/10/11 06:24:34;;;;;;;9.18;4.97;;;13.90;99.90;;;;;;4926279;29;20067;-60
2023/10/11 06:29:37;;;;;;;7.53;4.80;;;14.10;99.90;;;;;;4927207;28;20035;-59
2023/10/11 06:32:10;;;;;;;11.07;4.53;;;14.30;99.90;;;;;;4924605;28;20039;-60
2023/10/11 06:34:36;;;;;;;9.40;5.30;;;14.40;99.90;;;;;;4927521;28;20103;-60
2023/10/11 06:37:02;;;;;;;8.55;4.88;;;14.70;99.90;;;;;;4922382;29;20611;-58
2023/10/11 06:40:07;;;;;;;9.15;5.20;;;14.90;99.90;;;;;;4927422;28;20059;-59
2023/10/11 06:44:48;;;;;;;9.57;4.63;;;15.50;99.90;;;;;;4929537;29;20186;-59
2023/10/11 06:47:18;;;;;;;5.90;3.90;;;15.90;99.90;;;;;;4923430;28;20408;-60
2023/10/11 06:49:44;;;;;;;6.95;4.07;;;16.40;99.90;;;;;;4925187;29;20023;-57
2023/10/11 06:52:15;;;;;;;6.75;3.75;;;16.70;99.90;;;;;;4910608;28;20039;-59
2023/10/11 06:54:47;;;;;;;8.80;4.50;;;17.20;99.90;;;;;;4916919;29;20035;-59
2023/10/11 06:57:17;;;;;;;9.02;4.68;;;17.60;99.90;;;;;;4920731;29;20115;-58
2023/10/11 06:59:43;;;;;;;8.38;4.72;;;18.00;99.90;;;;;;4918812;28;20052;-57
2023/10/11 07:02:17;;;;;;;7.82;4.97;;;18.20;99.90;;;;;;4918274;29;20371;-59
2023/10/11 07:04:50;;;;;;;6.78;4.45;;;18.40;99.90;;;;;;4921948;29;20034;-57
2023/10/11 07:07:17;;;;;;;10.88;5.20;;;18.50;99.90;;;;;;4915442;29;20098;-58
2023/10/11 07:09:56;;;;;;;9.25;4.85;;;18.70;99.90;;;;;;4912739;29;20067;-58
2023/10/11 07:12:28;;;;;;;6.88;4.53;;;19.00;99.90;;;;;;4926046;29;20077;-60
2023/10/11 07:14:57;;;;;;;8.10;4.75;;;19.20;98.50;;;;;;4925539;29;20027;-60
2023/10/11 07:17:32;;;;;;;7.97;4.43;;;19.40;94.10;;;;;;4920705;28;20400;-59
2023/10/11 07:19:57;;;;;;;7.13;4.40;;;19.60;96.90;;;;;;4927990;28;20396;-59
2023/10/11 07:22:26;;;;;;;11.57;6.00;;;19.70;96.50;;;;;;4929485;29;20054;-58
2023/10/11 07:24:56;;;;;;;6.07;4.18;;;19.80;93.70;;;;;;4930418;28;20035;-58
2023/10/11 07:27:37;;;;;;;6.80;4.53;;;19.90;94.90;;;;;;4928676;28;20621;-58
2023/10/11 07:30:06;;;;;;;12.82;4.20;;;20.00;92.90;;;;;;4929113;29;20027;-58
2023/10/11 07:32:36;;;;;;;8.82;4.78;;;20.10;92.90;;;;;;4921278;29;20403;-58
2023/10/11 07:35:08;;;;;;;9.48;4.75;;;20.30;90.20;;;;;;4922173;29;20091;-59
2023/10/11 07:37:35;;;;;;;8.70;4.90;;;20.40;90.60;;;;;;4919709;28;20132;-56
2023/10/11 07:40:09;;;;;;;7.28;4.20;;;20.50;90.30;;;;;;4926499;29;20492;-58
2023/10/11 07:42:37;;;;;;;7.22;4.07;;;20.60;90.80;;;;;;4928378;29;20035;-56
2023/10/11 07:45:08;;;;;;;6.28;4.13;;;20.80;91.00;;;;;;4924074;28;20059;-58
2023/10/11 07:47:34;;;;;;;7.75;4.38;;;21.20;90.00;;;;;;4930575;29;20035;-57
2023/10/11 07:50:00;;;;;;;8.07;4.40;;;21.60;89.20;;;;;;4929602;29;20031;-58
2023/10/11 07:52:25;;;;;;;9.52;4.60;;;21.80;88.00;;;;;;4928683;28;20036;-58
2023/10/11 07:54:52;;;;;;;7.88;4.05;;;22.00;75.50;;;;;;4927117;29;20424;-57
2023/10/11 07:57:19;;;;;;;7.32;4.30;;;22.00;85.40;;;;;;4924181;29;20058;-57
2023/10/11 07:59:47;;;;;;;6.18;3.63;;;22.10;84.00;;;;;;4927642;28;20028;-56
2023/10/11 08:02:29;;;;;;;7.93;4.38;;;22.10;83.70;;;;;;4931066;28;20119;-58
2023/10/11 08:04:57;;;;;;;7.28;4.45;;;22.20;80.30;;;;;;4929356;28;20651;-55
2023/10/11 08:07:23;;;;;;;8.18;4.65;;;22.10;81.10;;;;;;4930789;28;20579;-59
2023/10/11 08:09:52;;;;;;;8.15;4.15;;;22.10;80.10;;;;;;4927044;29;20028;-57
2023/10/11 08:12:23;;;;;;;6.40;4.22;;;22.10;78.50;;;;;;4930102;28;20054;-56
2023/10/11 08:14:53;;;;;;;7.15;4.60;;;22.10;78.60;;;;;;4930690;29;20031;-58
2023/10/11 08:17:20;;;;;;;8.95;4.15;;;22.00;78.30;;;;;;4921233;29;20068;-57
2023/10/11 08:19:53;;;;;;;7.05;4.53;;;21.90;77.00;;;;;;4930092;28;20023;-58
2023/10/11 08:22:19;;;;;;;9.25;4.95;;;21.70;75.00;;;;;;4924469;29;20110;-59
2023/10/11 08:24:51;;;;;;;10.77;3.97;;;21.40;76.40;;;;;;4926611;29;20032;-57
2023/10/11 08:30:05;;;;;;;6.75;4.13;;;21.20;78.30;;;;;;4923931;29;20035;-58
2023/10/11 08:32:32;;;;;;;8.88;5.18;;;21.30;77.40;;;;;;4926283;29;20040;-60
2023/10/11 08:34:58;;;;;;;8.57;4.22;;;21.30;77.90;;;;;;4930322;29;20035;-59
2023/10/11 08:37:24;;;;;;;7.57;4.25;;;21.40;75.90;;;;;;4925382;29;20650;-58
2023/10/11 08:39:50;;;;;;;8.98;4.10;;;21.60;78.80;;;;;;4926409;29;20032;-58
2023/10/11 08:42:17;;;;;;;7.10;4.43;;;21.70;74.50;;;;;;4929687;28;20589;-59
2023/10/11 08:44:47;;;;;;;9.60;4.80;;;21.90;75.40;;;;;;4928098;29;20016;-58
2023/10/11 08:47:16;;;;;;;9.05;4.05;;;21.90;74.70;;;;;;4921996;28;20024;-61
2023/10/11 08:49:48;;;;;;;9.82;4.50;;;22.00;75.60;;;;;;4929904;29;20035;-62
2023/10/11 08:52:29;;;;;;;7.40;4.35;;;22.00;71.80;;;;;;4916849;29;20036;-61
2023/10/11 08:54:54;;;;;;;7.25;4.35;;;22.00;70.70;;;;;;4928027;29;20059;-62
2023/10/11 08:57:25;;;;;;;6.70;4.78;;;22.00;72.40;;;;;;4928397;29;20039;-61
2023/10/11 08:59:52;;;;;;;8.60;4.28;;;22.00;71.50;;;;;;4926442;28;20023;-62
2023/10/11 09:02:18;;;;;;;9.77;4.00;;;22.10;73.60;;;;;;4929324;29;20055;-61
2023/10/11 09:07:46;;;;;;;6.45;4.30;;;22.40;68.60;;;;;;4926587;28;20696;-61
2023/10/11 09:10:27;;;;;;;7.55;3.75;;;22.40;72.00;;;;;;4927302;29;20040;-62
2023/10/11 09:12:57;;;;;;;8.63;4.78;;;22.50;70.90;;;;;;4925550;29;20027;-62
2023/10/11 09:15:34;;;;;;;9.05;4.70;;;22.60;71.20;;;;;;4924362;29;20814;-61
2023/10/11 09:18:16;;;;;;;8.48;4.40;;;22.60;71.40;;;;;;4919988;29;20054;-60
2023/10/11 09:23:37;;;;;;;7.22;4.20;;;22.80;69.40;;;;;;4922224;29;20111;-61
2023/10/11 09:26:05;;;;;;;6.22;4.05;;;22.90;70.90;;;;;;4929233;29;20027;-61
2023/10/11 09:28:34;;;;;;;10.18;4.13;;;22.90;69.90;;;;;;4927089;29;20031;-61
2023/10/11 09:31:15;;;;;;;10.40;4.50;;;23.00;68.00;;;;;;4930352;28;20024;-60
2023/10/11 09:33:45;;;;;;;9.57;4.72;;;23.10;69.60;;;;;;4917356;29;20078;-59
2023/10/11 09:36:12;;;;;;;7.38;3.67;;;23.20;67.70;;;;;;4922865;29;20632;-56
2023/10/11 09:38:41;;;;;;;9.68;3.92;;;23.30;70.50;;;;;;4924825;29;20043;-58
2023/10/11 09:41:07;;;;;;;5.75;3.85;;;23.50;69.40;;;;;;4929330;29;20035;-57
2023/10/11 09:43:45;;;;;;;5.72;4.03;;;23.60;68.60;;;;;;4925328;29;20041;-58
2023/10/11 09:46:12;;;;;;;7.05;4.00;;;23.70;67.00;;;;;;4922615;29;20035;-59
2023/10/11 09:48:42;;;;;;;8.98;5.07;;;23.80;67.80;;;;;;4925521;28;20020;-58
2023/10/11 09:51:13;;;;;;;7.63;4.30;;;23.90;65.40;;;;;;4922515;29;20028;-57
2023/10/11 09:53:42;;;;;;;10.25;3.85;;;23.80;64.70;;;;;;4915432;29;20054;-58
2023/10/11 09:56:19;;;;;;;7.90;4.47;;;23.80;62.50;;;;;;4922283;29;20027;-58
2023/10/11 09:58:56;;;;;;;6.95;4.35;;;23.80;61.80;;;;;;4917860;29;20118;-58
2023/10/11 10:01:32;;;;;;;9.07;4.57;;;23.80;61.80;;;;;;4926237;28;20535;-57
2023/10/11 10:04:05;;;;;;;7.22;4.05;;;23.80;62.00;;;;;;4928105;29;20165;-58
2023/10/11 10:06:30;;;;;;;8.23;3.92;;;23.80;61.30;;;;;;4926007;29;20031;-60
2023/10/11 10:09:23;;;;;;;8.60;3.75;;;23.60;61.60;;;;;;4924930;29;20614;-58
2023/10/11 10:12:20;;;;;;;9.23;4.35;;;23.60;60.50;;;;;;4917858;29;20020;-58
2023/10/11 10:14:50;;;;;;;8.90;3.80;;;23.50;59.60;;;;;;4918550;29;20044;-56
2023/10/11 10:17:16;;;;;;;9.13;4.07;;;23.40;62.10;;;;;;4919091;29;20433;-59
2023/10/11 10:19:43;;;;;;;7.32;4.05;;;23.30;62.10;;;;;;4918512;29;20035;-59
2023/10/11 10:22:16;;;;;;;10.32;4.28;;;23.30;62.10;;;;;;4920356;29;20032;-58
2023/10/11 10:24:46;;;;;;;7.00;3.92;;;23.30;61.90;;;;;;4922520;29;20028;-58
2023/10/11 10:27:23;;;;;;;5.95;3.65;;;23.30;62.10;;;;;;4918639;29;20035;-59
2023/10/11 10:29:59;;;;;;;12.77;4.53;;;23.30;61.80;;;;;;4922354;29;20153;-57
2023/10/11 10:32:25;;;;;;;8.18;3.92;;;23.30;61.40;;;;;;4921369;29;20477;-59
2023/10/11 10:35:19;;;;;;;6.05;3.75;;;23.30;61.40;;;;;;4926961;29;20035;-59
2023/10/11 10:37:57;;;;;;;7.05;4.28;;;23.30;59.90;;;;;;4921034;28;20492;-59
2023/10/11 10:40:24;;;;;;;6.50;3.80;;;23.30;60.70;;;;;;4921562;29;20050;-59
2023/10/11 10:43:19;;;;;;;7.72;3.58;;;23.30;61.10;;;;;;4929344;28;20036;-59
2023/10/11 10:46:03;;;;;;;6.88;4.22;;;23.20;59.10;;;;;;4928213;29;20563;-58
2023/10/11 10:48:39;;;;;;;7.53;3.90;;;23.10;60.10;;;;;;4924260;29;20031;-59
2023/10/11 10:51:05;;;;;;;7.40;4.22;;;23.10;60.80;;;;;;4928555;29;20188;-59
2023/10/11 10:53:37;;;;;;;7.60;3.88;;;23.00;60.50;;;;;;4925097;29;20044;-59
2023/10/11 10:56:03;;;;;;;7.53;3.97;;;22.90;60.80;;;;;;4928393;28;20028;-59
2023/10/11 10:58:29;;;;;;;8.77;4.15;;;22.80;61.50;;;;;;4931518;29;20023;-58
2023/10/11 11:00:59;;;;;;;8.35;4.18;;;22.90;61.40;;;;;;4929556;29;20044;-58
2023/10/11 11:03:31;;;;;;;9.20;3.97;;;22.70;60.30;;;;;;4929364;29;20036;-58
2023/10/11 11:05:59;;;;;;;8.93;3.90;;;22.70;61.00;;;;;;4925771;29;20031;-58
2023/10/11 11:08:32;;;;;;;9.48;4.47;;;22.70;61.40;;;;;;4930004;29;20464;-56
2023/10/11 11:11:18;;;;;;;6.70;3.45;;;22.80;61.30;;;;;;4928915;29;20034;-59
2023/10/11 11:13:51;;;;;;;8.48;4.68;;;22.70;61.20;;;;;;4928297;29;20024;-60
2023/10/11 11:16:18;;;;;;;5.95;3.63;;;22.70;60.30;;;;;;4927388;28;20035;-59
2023/10/11 11:18:44;;;;;;;6.25;3.45;;;22.90;60.70;;;;;;4929638;28;20039;-59
2023/10/11 11:21:25;;;;;;;7.07;3.95;;;22.90;60.20;;;;;;4931440;28;20031;-59
2023/10/11 11:23:52;;;;;;;9.52;3.72;;;23.00;60.10;;;;;;4925938;29;20036;-59
2023/10/11 11:26:23;;;;;;;6.63;3.63;;;23.00;60.20;;;;;;4929029;28;20551;-59
2023/10/11 11:28:51;;;;;;;5.00;3.38;;;23.10;60.20;;;;;;4931368;29;20030;-59
2023/10/11 11:31:30;;;;;;;12.25;4.00;;;23.20;59.60;;;;;;4929472;29;20064;-60
2023/10/11 11:34:26;;;;;;;11.00;4.20;;;23.20;59.90;;;;;;4927488;28;20019;-59
2023/10/11 11:37:00;;;;;;;5.63;3.47;;;23.30;57.50;;;;;;4921198;29;20049;-59
2023/10/11 11:39:27;;;;;;;5.15;3.85;;;23.30;59.00;;;;;;4931436;29;20092;-59
2023/10/11 11:41:57;;;;;;;5.75;3.85;;;23.30;59.40;;;;;;4931826;29;20408;-58
2023/10/11 11:44:24;;;;;;;9.02;4.18;;;23.20;59.70;;;;;;4928497;29;20032;-57
2023/10/11 11:46:54;;;;;;;8.02;3.95;;;23.20;60.00;;;;;;4928616;28;20035;-58
2023/10/11 11:49:22;;;;;;;6.55;3.72;;;23.20;59.40;;;;;;4928211;29;20038;-59
2023/10/11 11:51:51;;;;;;;8.07;3.30;;;23.20;60.00;;;;;;4928104;29;20022;-58
2023/10/11 11:54:20;;;;;;;6.65;3.58;;;23.20;60.20;;;;;;4928951;28;20024;-59
2023/10/11 11:56:46;;;;;;;11.32;6.65;;;23.10;59.90;;;;;;4930977;28;20053;-58
2023/10/11 11:59:19;;;;;;;8.65;5.20;;;23.10;59.60;;;;;;4926974;29;20031;-58
2023/10/11 12:01:49;;;;;;;17.88;7.93;;;23.10;59.50;;;;;;4920056;29;20523;-59
2023/10/11 12:04:20;;;;;;;12.05;6.22;;;23.10;59.10;;;;;;4926702;29;20028;-60
2023/10/11 12:06:50;;;;;;;9.63;5.13;;;23.10;59.30;;;;;;4924723;28;20016;-59
2023/10/11 12:09:22;;;;;;;8.82;4.20;;;23.10;59.30;;;;;;4930684;28;20391;-59
2023/10/11 12:11:53;;;;;;;25.15;8.25;;;23.10;59.20;;;;;;4927633;29;20064;-59
2023/10/11 12:14:22;;;;;;;12.77;5.35;;;23.00;58.30;;;;;;4928871;28;20020;-58
2023/10/11 12:16:48;;;;;;;9.00;3.70;;;23.10;58.50;;;;;;4930511;29;20023;-58
2023/10/11 12:19:14;;;;;;;9.27;4.13;;;23.10;58.70;;;;;;4930348;29;20094;-59
2023/10/11 12:21:40;;;;;;;12.98;5.18;;;23.20;58.60;;;;;;4928237;29;20027;-59
2023/10/11 12:24:11;;;;;;;9.30;3.97;;;23.10;58.90;;;;;;4929979;29;20115;-58
2023/10/11 12:26:42;;;;;;;12.23;4.47;;;23.20;58.60;;;;;;4927641;29;20035;-59
2023/10/11 12:29:14;;;;;;;16.27;5.60;;;23.20;59.30;;;;;;4927949;28;20027;-58
2023/10/11 12:31:40;;;;;;;24.45;8.13;;;23.20;58.20;;;;;;4928025;29;20043;-59
2023/10/11 12:34:09;;;;;;;14.38;5.78;;;23.20;58.30;;;;;;4926262;29;20337;-58
2023/10/11 12:36:39;;;;;;;13.60;5.90;;;23.20;57.90;;;;;;4922841;29;20024;-59
2023/10/11 12:39:06;;;;;;;9.13;4.25;;;23.30;57.80;;;;;;4923433;28;20280;-58
2023/10/11 12:41:32;;;;;;;8.20;4.57;;;23.30;57.10;;;;;;4924172;29;20027;-58
2023/10/11 12:44:00;;;;;;;8.45;3.58;;;23.30;55.70;;;;;;4925359;29;20028;-59
2023/10/11 12:46:27;;;;;;;8.10;3.97;;;23.30;56.80;;;;;;4928128;28;20030;-58
2023/10/11 12:48:56;;;;;;;10.30;4.22;;;23.30;56.60;;;;;;4929089;28;20027;-59
2023/10/11 12:51:23;;;;;;;13.82;4.00;;;23.30;57.20;;;;;;4925762;28;20028;-58
2023/10/11 12:53:49;;;;;;;11.93;4.85;;;23.40;57.40;;;;;;4924849;29;20503;-58
2023/10/11 12:56:14;;;;;;;7.15;4.10;;;23.40;57.50;;;;;;4927180;29;20036;-58
2023/10/11 12:58:40;;;;;;;15.38;6.55;;;23.40;57.70;;;;;;4928788;29;20059;-58
2023/10/11 13:01:11;;;;;;;11.32;4.82;;;23.40;57.70;;;;;;4923361;29;20084;-59
2023/10/11 13:03:38;;;;;;;6.40;4.20;;;23.40;57.80;;;;;;4926829;28;20158;-59
2023/10/11 13:06:04;;;;;;;7.13;4.20;;;23.30;57.80;;;;;;4929382;28;20038;-58
2023/10/11 13:08:33;;;;;;;8.00;3.70;;;23.30;57.70;;;;;;4926357;29;20046;-57
2023/10/11 13:11:00;;;;;;;6.28;3.15;;;23.30;57.10;;;;;;4921720;28;20042;-59
2023/10/11 13:13:27;;;;;;;4.50;3.28;;;23.30;57.30;;;;;;4931052;29;20641;-58
2023/10/11 13:15:59;;;;;;;5.40;3.78;;;23.30;57.80;;;;;;4923267;29;20059;-58
2023/10/11 13:18:31;;;;;;;7.70;3.63;;;23.30;57.30;;;;;;4923422;28;20047;-59
2023/10/11 13:20:57;;;;;;;8.65;3.95;;;23.30;57.50;;;;;;4917834;29;20022;-58
2023/10/11 13:23:29;;;;;;;6.32;4.05;;;23.30;57.60;;;;;;4927561;29;20664;-58
2023/10/11 13:26:06;;;;;;;9.82;3.92;;;23.20;57.20;;;;;;4927672;29;20030;-59
2023/10/11 13:28:33;;;;;;;9.00;4.10;;;23.20;57.60;;;;;;4922791;29;20503;-58
2023/10/11 13:31:02;;;;;;;6.50;3.47;;;23.10;57.50;;;;;;4927372;29;20369;-58
2023/10/11 13:33:30;;;;;;;7.95;3.83;;;23.10;57.80;;;;;;4923309;29;20158;-59
2023/10/11 13:35:59;;;;;;;7.30;3.97;;;23.10;57.70;;;;;;4928304;28;20118;-57
2023/10/11 13:38:25;;;;;;;9.50;3.78;;;23.00;57.60;;;;;;4918392;28;20586;-59
2023/10/11 13:40:52;;;;;;;8.82;3.97;;;23.00;57.60;;;;;;4926039;28;20701;-58
2023/10/11 13:43:19;;;;;;;6.43;4.22;;;23.00;58.00;;;;;;4920703;29;20042;-59
2023/10/11 13:45:52;;;;;;;8.85;4.20;;;23.00;58.10;;;;;;4922495;29;20035;-58
2023/10/11 13:48:33;;;;;;;7.00;4.28;;;23.00;57.90;;;;;;4921355;28;20032;-58
2023/10/11 13:51:03;;;;;;;6.28;3.58;;;22.90;58.10;;;;;;4918840;29;20032;-58
2023/10/11 13:53:28;;;;;;;6.50;3.55;;;23.00;58.50;;;;;;4920845;29;20039;-58
2023/10/11 13:55:54;;;;;;;6.07;4.28;;;22.90;58.60;;;;;;4925215;29;20134;-58
2023/10/11 13:58:19;;;;;;;5.65;3.55;;;22.90;58.70;;;;;;4928618;29;20103;-58
2023/10/11 14:05:40;;;;;;;8.18;4.03;;;22.80;59.00;;;;;;4925528;28;20143;-59
2023/10/11 14:08:23;;;;;;;7.75;3.90;;;22.80;59.20;;;;;;4929205;29;20349;-60